sensor_id;sensor_type;location;lat;lon;timestamp;temperature;humidity
25951;DHT22;13748;52.240;6.002;2022-08-21T00:00:24;17.00;99.90
25951;DHT22;13748;52.240;6.002;2022-08-21T00:03:03;17.00;99.90
25951;DHT22;13748;52.240;6.002;2022-08-21T00:05:32;17.00;99.90
25951;DHT22;13748;52.240;6.002;2022-08-21T00:08:01;16.90;99.90
25951;DHT22;13748;52.240;6.002;2022-08-21T00:10:28;16.90;99.90
25951;DHT22;13748;52.240;6.002;2022-08-21T00:12:57;16.80;99.90
25951;DHT22;13748;52.240;6.002;2022-08-21T00:35:14;16.60;99.90
25951;DHT22;13748;52.240;6.002;2022-08-21T00:37:43;16.60;99.90
25951;DHT22;13748;52.240;6.002;2022-08-21T00:40:18;16.60;99.90
25951;DHT22;13748;52.240;6.002;2022-08-21T00:42:48;16.50;99.90
25951;DHT22;13748;52.240;6.002;2022-08-21T00:45:21;16.50;99.90
25951;DHT22;13748;52.240;6.002;2022-08-21T00:47:49;16.50;99.90
25951;DHT22;13748;52.240;6.002;2022-08-21T00:50:19;16.50;99.90
25951;DHT22;13748;52.240;6.002;2022-08-21T00:52:50;16.50;99.90
25951;DHT22;13748;52.240;6.002;2022-08-21T00:55:43;16.60;99.90
25951;DHT22;13748;52.240;6.002;2022-08-21T00:58:27;16.50;99.90
25951;DHT22;13748;52.240;6.002;2022-08-21T01:00:56;16.50;99.90
25951;DHT22;13748;52.240;6.002;2022-08-21T01:03:27;16.40;99.90
25951;DHT22;13748;52.240;6.002;2022-08-21T01:05:55;16.40;99.90
25951;DHT22;13748;52.240;6.002;2022-08-21T01:08:23;16.40;99.90
25951;DHT22;13748;52.240;6.002;2022-08-21T01:10:54;16.40;99.90
25951;DHT22;13748;52.240;6.002;2022-08-21T01:13:23;16.30;99.90
25951;DHT22;13748;52.240;6.002;2022-08-21T01:15:55;16.30;99.90
25951;DHT22;13748;52.240;6.002;2022-08-21T01:18:23;16.30;99.90
25951;DHT22;13748;52.240;6.002;2022-08-21T01:21:11;16.40;99.90
25951;DHT22;13748;52.240;6.002;2022-08-21T01:23:42;16.20;99.90
25951;DHT22;13748;52.240;6.002;2022-08-21T01:26:11;16.30;99.90
25951;DHT22;13748;52.240;6.002;2022-08-21T01:31:28;16.20;99.90
25951;DHT22;13748;52.240;6.002;2022-08-21T01:33:57;16.10;99.90
25951;DHT22;13748;52.240;6.002;2022-08-21T01:36:25;16.20;99.90
25951;DHT22;13748;52.240;6.002;2022-08-21T01:38:55;16.10;99.90
25951;DHT22;13748;52.240;6.002;2022-08-21T01:41:22;16.10;99.90
25951;DHT22;13748;52.240;6.002;2022-08-21T01:43:56;16.10;99.90
25951;DHT22;13748;52.240;6.002;2022-08-21T01:46:23;16.00;99.90
25951;DHT22;13748;52.240;6.002;2022-08-21T01:48:53;16.00;99.90
25951;DHT22;13748;52.240;6.002;2022-08-21T01:51:23;16.00;99.90
25951;DHT22;13748;52.240;6.002;2022-08-21T01:53:52;16.00;99.90
25951;DHT22;13748;52.240;6.002;2022-08-21T01:56:21;15.90;99.90
25951;DHT22;13748;52.240;6.002;2022-08-21T01:58:49;15.90;99.90
25951;DHT22;13748;52.240;6.002;2022-08-21T02:01:16;15.90;99.90
25951;DHT22;13748;52.240;6.002;2022-08-21T02:03:43;15.90;99.90
25951;DHT22;13748;52.240;6.002;2022-08-21T02:06:15;15.80;99.90
25951;DHT22;13748;52.240;6.002;2022-08-21T02:08:45;15.80;99.90
25951;DHT22;13748;52.240;6.002;2022-08-21T02:11:16;15.80;99.90
25951;DHT22;13748;52.240;6.002;2022-08-21T02:13:43;15.80;99.90
25951;DHT22;13748;52.240;6.002;2022-08-21T02:16:11;15.80;99.90
25951;DHT22;13748;52.240;6.002;2022-08-21T02:18:45;15.80;99.90
25951;DHT22;13748;52.240;6.002;2022-08-21T02:21:12;15.80;99.90
25951;DHT22;13748;52.240;6.002;2022-08-21T02:23:39;15.80;99.90
25951;DHT22;13748;52.240;6.002;2022-08-21T02:26:07;15.80;99.90
25951;DHT22;13748;52.240;6.002;2022-08-21T02:28:36;15.80;99.90
25951;DHT22;13748;52.240;6.002;2022-08-21T02:31:04;15.80;99.90
25951;DHT22;13748;52.240;6.002;2022-08-21T02:33:32;15.80;99.90
25951;DHT22;13748;52.240;6.002;2022-08-21T02:36:01;15.70;99.90
25951;DHT22;13748;52.240;6.002;2022-08-21T02:38:32;15.70;99.90
25951;DHT22;13748;52.240;6.002;2022-08-21T02:41:01;15.70;99.90
25951;DHT22;13748;52.240;6.002;2022-08-21T02:43:28;15.70;99.90
25951;DHT22;13748;52.240;6.002;2022-08-21T02:45:57;15.70;99.90
25951;DHT22;13748;52.240;6.002;2022-08-21T02:48:27;15.70;99.90
25951;DHT22;13748;52.240;6.002;2022-08-21T02:51:00;15.70;99.90
25951;DHT22;13748;52.240;6.002;2022-08-21T02:53:28;15.70;99.90
25951;DHT22;13748;52.240;6.002;2022-08-21T02:55:58;15.70;99.90
25951;DHT22;13748;52.240;6.002;2022-08-21T02:58:30;15.70;99.90
25951;DHT22;13748;52.240;6.002;2022-08-21T03:00:58;15.70;99.90
25951;DHT22;13748;52.240;6.002;2022-08-21T03:03:27;15.70;99.90
25951;DHT22;13748;52.240;6.002;2022-08-21T03:05:55;15.60;99.90
25951;DHT22;13748;52.240;6.002;2022-08-21T03:08:23;15.60;99.90
25951;DHT22;13748;52.240;6.002;2022-08-21T03:10:53;15.60;99.90
25951;DHT22;13748;52.240;6.002;2022-08-21T03:13:21;15.60;99.90
25951;DHT22;13748;52.240;6.002;2022-08-21T03:15:49;15.60;99.90
25951;DHT22;13748;52.240;6.002;2022-08-21T03:18:17;15.60;99.90
25951;DHT22;13748;52.240;6.002;2022-08-21T03:20:44;15.50;99.90
25951;DHT22;13748;52.240;6.002;2022-08-21T03:23:15;15.50;99.90
25951;DHT22;13748;52.240;6.002;2022-08-21T03:25:46;15.50;99.90
25951;DHT22;13748;52.240;6.002;2022-08-21T03:28:17;15.30;99.90
25951;DHT22;13748;52.240;6.002;2022-08-21T03:30:46;15.50;99.90
25951;DHT22;13748;52.240;6.002;2022-08-21T03:33:14;15.50;99.90
25951;DHT22;13748;52.240;6.002;2022-08-21T03:35:43;15.40;99.90
25951;DHT22;13748;52.240;6.002;2022-08-21T03:38:11;15.40;99.90
25951;DHT22;13748;52.240;6.002;2022-08-21T03:40:41;15.30;99.90
25951;DHT22;13748;52.240;6.002;2022-08-21T03:43:08;15.30;99.90
25951;DHT22;13748;52.240;6.002;2022-08-21T03:45:36;15.30;99.90
25951;DHT22;13748;52.240;6.002;2022-08-21T03:48:05;15.30;99.90
25951;DHT22;13748;52.240;6.002;2022-08-21T03:50:36;15.30;99.90
25951;DHT22;13748;52.240;6.002;2022-08-21T03:53:08;15.30;99.90
25951;DHT22;13748;52.240;6.002;2022-08-21T03:55:48;15.20;99.90
25951;DHT22;13748;52.240;6.002;2022-08-21T03:58:17;15.20;99.90
25951;DHT22;13748;52.240;6.002;2022-08-21T04:00:47;15.30;99.90
25951;DHT22;13748;52.240;6.002;2022-08-21T04:03:15;15.20;99.90
25951;DHT22;13748;52.240;6.002;2022-08-21T04:05:43;15.20;99.90
25951;DHT22;13748;52.240;6.002;2022-08-21T04:08:13;15.10;99.90
25951;DHT22;13748;52.240;6.002;2022-08-21T04:10:41;15.10;99.90
25951;DHT22;13748;52.240;6.002;2022-08-21T04:13:10;15.10;99.90
25951;DHT22;13748;52.240;6.002;2022-08-21T04:15:37;15.10;99.90
25951;DHT22;13748;52.240;6.002;2022-08-21T04:18:05;15.10;99.90
25951;DHT22;13748;52.240;6.002;2022-08-21T04:20:32;15.10;99.90
25951;DHT22;13748;52.240;6.002;2022-08-21T04:23:01;15.00;99.90
25951;DHT22;13748;52.240;6.002;2022-08-21T04:25:28;15.00;99.90
25951;DHT22;13748;52.240;6.002;2022-08-21T04:27:55;15.00;99.90
25951;DHT22;13748;52.240;6.002;2022-08-21T04:30:23;14.90;99.90
25951;DHT22;13748;52.240;6.002;2022-08-21T04:32:55;14.90;99.90
25951;DHT22;13748;52.240;6.002;2022-08-21T04:35:24;14.90;99.90
25951;DHT22;13748;52.240;6.002;2022-08-21T04:37:52;14.90;99.90
25951;DHT22;13748;52.240;6.002;2022-08-21T04:40:20;14.90;99.90
25951;DHT22;13748;52.240;6.002;2022-08-21T04:42:51;14.90;99.90
25951;DHT22;13748;52.240;6.002;2022-08-21T04:45:26;14.90;99.90
25951;DHT22;13748;52.240;6.002;2022-08-21T04:47:55;14.90;99.90
25951;DHT22;13748;52.240;6.002;2022-08-21T04:50:28;14.80;99.90
25951;DHT22;13748;52.240;6.002;2022-08-21T04:52:56;14.90;99.90
25951;DHT22;13748;52.240;6.002;2022-08-21T04:55:24;14.80;99.90
25951;DHT22;13748;52.240;6.002;2022-08-21T04:57:53;14.80;99.90
25951;DHT22;13748;52.240;6.002;2022-08-21T05:00:23;14.80;99.90
25951;DHT22;13748;52.240;6.002;2022-08-21T05:02:53;14.80;99.90
25951;DHT22;13748;52.240;6.002;2022-08-21T05:05:28;14.80;99.90
25951;DHT22;13748;52.240;6.002;2022-08-21T05:07:57;14.80;99.90
25951;DHT22;13748;52.240;6.002;2022-08-21T05:10:29;14.80;99.90
25951;DHT22;13748;52.240;6.002;2022-08-21T05:13:01;14.90;99.90
25951;DHT22;13748;52.240;6.002;2022-08-21T05:15:32;14.90;99.90
25951;DHT22;13748;52.240;6.002;2022-08-21T05:18:02;14.90;99.90
25951;DHT22;13748;52.240;6.002;2022-08-21T05:20:41;15.00;99.90
25951;DHT22;13748;52.240;6.002;2022-08-21T05:23:14;15.00;99.90
25951;DHT22;13748;52.240;6.002;2022-08-21T05:25:42;15.10;99.90
25951;DHT22;13748;52.240;6.002;2022-08-21T05:28:14;15.10;99.90
25951;DHT22;13748;52.240;6.002;2022-08-21T05:30:49;15.10;99.90
25951;DHT22;13748;52.240;6.002;2022-08-21T05:33:17;15.20;99.90
25951;DHT22;13748;52.240;6.002;2022-08-21T05:35:56;15.30;99.90
25951;DHT22;13748;52.240;6.002;2022-08-21T05:38:25;15.40;99.90
25951;DHT22;13748;52.240;6.002;2022-08-21T05:41:12;15.40;99.90
25951;DHT22;13748;52.240;6.002;2022-08-21T05:44:00;15.60;99.90
25951;DHT22;13748;52.240;6.002;2022-08-21T05:46:40;15.60;99.90
25951;DHT22;13748;52.240;6.002;2022-08-21T05:49:10;15.70;99.90
25951;DHT22;13748;52.240;6.002;2022-08-21T05:51:45;15.80;99.90
25951;DHT22;13748;52.240;6.002;2022-08-21T05:54:25;15.90;99.90
25951;DHT22;13748;52.240;6.002;2022-08-21T05:57:05;16.00;99.90
25951;DHT22;13748;52.240;6.002;2022-08-21T05:59:32;16.10;99.90
25951;DHT22;13748;52.240;6.002;2022-08-21T06:01:59;16.10;99.90
25951;DHT22;13748;52.240;6.002;2022-08-21T06:04:35;16.20;99.90
25951;DHT22;13748;52.240;6.002;2022-08-21T06:07:03;16.30;99.90
25951;DHT22;13748;52.240;6.002;2022-08-21T06:09:31;16.40;99.90
25951;DHT22;13748;52.240;6.002;2022-08-21T06:12:11;16.50;99.90
25951;DHT22;13748;52.240;6.002;2022-08-21T06:14:40;16.60;99.90
25951;DHT22;13748;52.240;6.002;2022-08-21T06:17:11;16.70;99.90
25951;DHT22;13748;52.240;6.002;2022-08-21T06:19:39;17.20;99.90
25951;DHT22;13748;52.240;6.002;2022-08-21T06:22:06;18.30;99.90
25951;DHT22;13748;52.240;6.002;2022-08-21T06:24:36;19.50;99.90
25951;DHT22;13748;52.240;6.002;2022-08-21T06:27:05;21.00;99.90
25951;DHT22;13748;52.240;6.002;2022-08-21T06:29:35;21.80;99.90
25951;DHT22;13748;52.240;6.002;2022-08-21T06:32:15;22.80;99.90
25951;DHT22;13748;52.240;6.002;2022-08-21T06:34:43;24.00;99.90
25951;DHT22;13748;52.240;6.002;2022-08-21T06:37:10;24.90;99.90
25951;DHT22;13748;52.240;6.002;2022-08-21T06:39:38;25.70;99.90
25951;DHT22;13748;52.240;6.002;2022-08-21T06:42:16;26.60;99.90
25951;DHT22;13748;52.240;6.002;2022-08-21T06:44:46;27.30;99.90
25951;DHT22;13748;52.240;6.002;2022-08-21T06:47:23;27.80;99.90
25951;DHT22;13748;52.240;6.002;2022-08-21T06:49:56;28.20;99.90
25951;DHT22;13748;52.240;6.002;2022-08-21T06:53:16;28.60;99.90
25951;DHT22;13748;52.240;6.002;2022-08-21T06:55:45;28.60;99.90
25951;DHT22;13748;52.240;6.002;2022-08-21T06:58:21;28.70;99.90
25951;DHT22;13748;52.240;6.002;2022-08-21T07:00:58;28.80;99.90
25951;DHT22;13748;52.240;6.002;2022-08-21T07:03:37;28.90;99.90
25951;DHT22;13748;52.240;6.002;2022-08-21T07:06:21;28.80;99.90
25951;DHT22;13748;52.240;6.002;2022-08-21T07:09:06;29.00;99.90
25951;DHT22;13748;52.240;6.002;2022-08-21T07:11:37;28.80;99.90
25951;DHT22;13748;52.240;6.002;2022-08-21T07:14:15;28.60;99.70
25951;DHT22;13748;52.240;6.002;2022-08-21T07:16:48;28.50;99.50
25951;DHT22;13748;52.240;6.002;2022-08-21T07:19:25;28.70;99.60
25951;DHT22;13748;52.240;6.002;2022-08-21T07:22:01;29.10;98.90
25951;DHT22;13748;52.240;6.002;2022-08-21T07:24:30;28.90;97.20
25951;DHT22;13748;52.240;6.002;2022-08-21T07:27:07;28.70;98.00
25951;DHT22;13748;52.240;6.002;2022-08-21T07:29:55;28.40;97.70
25951;DHT22;13748;52.240;6.002;2022-08-21T07:32:31;27.90;97.90
25951;DHT22;13748;52.240;6.002;2022-08-21T07:35:20;28.10;98.30
25951;DHT22;13748;52.240;6.002;2022-08-21T07:37:50;28.20;98.00
25951;DHT22;13748;52.240;6.002;2022-08-21T07:40:38;28.30;98.00
25951;DHT22;13748;52.240;6.002;2022-08-21T07:43:06;28.60;97.60
25951;DHT22;13748;52.240;6.002;2022-08-21T07:45:44;29.00;97.30
25951;DHT22;13748;52.240;6.002;2022-08-21T07:48:14;29.30;96.40
25951;DHT22;13748;52.240;6.002;2022-08-21T07:50:42;29.50;95.90
25951;DHT22;13748;52.240;6.002;2022-08-21T07:53:19;29.80;95.40
25951;DHT22;13748;52.240;6.002;2022-08-21T07:55:46;30.00;94.60
25951;DHT22;13748;52.240;6.002;2022-08-21T07:58:44;30.00;94.30
25951;DHT22;13748;52.240;6.002;2022-08-21T08:01:29;30.10;93.60
25951;DHT22;13748;52.240;6.002;2022-08-21T08:04:02;29.90;92.80
25951;DHT22;13748;52.240;6.002;2022-08-21T08:06:38;29.70;93.50
25951;DHT22;13748;52.240;6.002;2022-08-21T08:09:23;29.40;93.50
25951;DHT22;13748;52.240;6.002;2022-08-21T08:11:53;28.80;93.70
25951;DHT22;13748;52.240;6.002;2022-08-21T08:14:21;28.90;94.70
25951;DHT22;13748;52.240;6.002;2022-08-21T08:17:00;29.00;94.60
25951;DHT22;13748;52.240;6.002;2022-08-21T08:19:32;29.20;95.30
25951;DHT22;13748;52.240;6.002;2022-08-21T08:22:13;29.10;95.20
25951;DHT22;13748;52.240;6.002;2022-08-21T08:25:05;29.00;95.80
25951;DHT22;13748;52.240;6.002;2022-08-21T08:27:39;29.00;96.10
25951;DHT22;13748;52.240;6.002;2022-08-21T08:30:11;28.90;96.50
25951;DHT22;13748;52.240;6.002;2022-08-21T08:32:39;29.10;96.40
25951;DHT22;13748;52.240;6.002;2022-08-21T08:35:08;29.20;96.50
25951;DHT22;13748;52.240;6.002;2022-08-21T08:37:36;29.20;96.40
25951;DHT22;13748;52.240;6.002;2022-08-21T08:40:14;29.30;96.50
25951;DHT22;13748;52.240;6.002;2022-08-21T08:42:45;29.30;96.40
25951;DHT22;13748;52.240;6.002;2022-08-21T08:45:18;28.90;96.20
25951;DHT22;13748;52.240;6.002;2022-08-21T08:47:55;28.80;96.80
25951;DHT22;13748;52.240;6.002;2022-08-21T08:50:48;28.50;97.10
25951;DHT22;13748;52.240;6.002;2022-08-21T08:53:51;28.70;97.90
25951;DHT22;13748;52.240;6.002;2022-08-21T08:56:26;28.60;97.30
25951;DHT22;13748;52.240;6.002;2022-08-21T08:59:02;28.60;97.30
25951;DHT22;13748;52.240;6.002;2022-08-21T09:01:33;28.50;97.60
25951;DHT22;13748;52.240;6.002;2022-08-21T09:04:10;28.50;97.60
25951;DHT22;13748;52.240;6.002;2022-08-21T09:09:51;29.10;97.10
25951;DHT22;13748;52.240;6.002;2022-08-21T09:16:47;29.60;96.40
25951;DHT22;13748;52.240;6.002;2022-08-21T09:21:57;29.80;96.20
25951;DHT22;13748;52.240;6.002;2022-08-21T09:24:48;29.50;96.10
25951;DHT22;13748;52.240;6.002;2022-08-21T09:27:19;29.20;95.90
25951;DHT22;13748;52.240;6.002;2022-08-21T09:29:56;29.20;95.70
25951;DHT22;13748;52.240;6.002;2022-08-21T09:32:28;28.60;96.30
25951;DHT22;13748;52.240;6.002;2022-08-21T09:35:14;28.80;97.00
25951;DHT22;13748;52.240;6.002;2022-08-21T09:37:59;28.90;96.60
25951;DHT22;13748;52.240;6.002;2022-08-21T09:45:44;28.80;96.50
25951;DHT22;13748;52.240;6.002;2022-08-21T09:48:24;28.60;96.60
25951;DHT22;13748;52.240;6.002;2022-08-21T09:51:17;28.70;96.90
25951;DHT22;13748;52.240;6.002;2022-08-21T09:54:07;28.80;96.50
25951;DHT22;13748;52.240;6.002;2022-08-21T09:59:55;28.60;96.50
25951;DHT22;13748;52.240;6.002;2022-08-21T10:02:30;28.20;96.50
25951;DHT22;13748;52.240;6.002;2022-08-21T10:08:05;28.00;96.80
25951;DHT22;13748;52.240;6.002;2022-08-21T10:10:42;27.50;97.20
25951;DHT22;13748;52.240;6.002;2022-08-21T10:13:46;27.50;97.40
25951;DHT22;13748;52.240;6.002;2022-08-21T10:25:19;27.50;96.70
25951;DHT22;13748;52.240;6.002;2022-08-21T10:28:03;27.30;97.30
25951;DHT22;13748;52.240;6.002;2022-08-21T10:30:51;27.10;97.90
25951;DHT22;13748;52.240;6.002;2022-08-21T10:33:43;26.90;97.90
25951;DHT22;13748;52.240;6.002;2022-08-21T10:36:45;26.60;97.30
25951;DHT22;13748;52.240;6.002;2022-08-21T10:45:20;26.40;98.10
25951;DHT22;13748;52.240;6.002;2022-08-21T10:51:15;26.20;98.00
25951;DHT22;13748;52.240;6.002;2022-08-21T10:54:12;26.40;98.30
25951;DHT22;13748;52.240;6.002;2022-08-21T10:56:54;26.50;98.30
25951;DHT22;13748;52.240;6.002;2022-08-21T10:59:31;26.30;98.00
25951;DHT22;13748;52.240;6.002;2022-08-21T11:05:01;26.20;98.40
25951;DHT22;13748;52.240;6.002;2022-08-21T11:07:37;26.40;99.10
25951;DHT22;13748;52.240;6.002;2022-08-21T11:13:22;26.60;98.00
25951;DHT22;13748;52.240;6.002;2022-08-21T11:16:18;26.70;97.90
25951;DHT22;13748;52.240;6.002;2022-08-21T11:18:55;26.80;97.90
25951;DHT22;13748;52.240;6.002;2022-08-21T11:24:19;26.90;96.90
25951;DHT22;13748;52.240;6.002;2022-08-21T11:29:39;27.30;97.20
25951;DHT22;13748;52.240;6.002;2022-08-21T11:43:40;27.80;95.00
25951;DHT22;13748;52.240;6.002;2022-08-21T11:51:49;28.70;94.70
25951;DHT22;13748;52.240;6.002;2022-08-21T11:54:38;29.00;94.70
25951;DHT22;13748;52.240;6.002;2022-08-21T11:57:17;29.10;94.00
25951;DHT22;13748;52.240;6.002;2022-08-21T12:02:39;29.30;93.20
25951;DHT22;13748;52.240;6.002;2022-08-21T12:05:20;29.20;93.00
25951;DHT22;13748;52.240;6.002;2022-08-21T12:08:10;29.30;93.10
25951;DHT22;13748;52.240;6.002;2022-08-21T12:10:46;29.30;92.50
25951;DHT22;13748;52.240;6.002;2022-08-21T12:13:26;29.30;92.50
25951;DHT22;13748;52.240;6.002;2022-08-21T12:16:14;29.50;92.70
25951;DHT22;13748;52.240;6.002;2022-08-21T12:18:45;29.40;91.50
25951;DHT22;13748;52.240;6.002;2022-08-21T12:21:25;29.40;91.90
25951;DHT22;13748;52.240;6.002;2022-08-21T12:24:17;29.60;91.80
25951;DHT22;13748;52.240;6.002;2022-08-21T12:26:52;29.60;91.30
25951;DHT22;13748;52.240;6.002;2022-08-21T12:29:28;29.50;92.00
25951;DHT22;13748;52.240;6.002;2022-08-21T12:35:21;29.30;92.00
25951;DHT22;13748;52.240;6.002;2022-08-21T12:38:22;29.30;92.60
25951;DHT22;13748;52.240;6.002;2022-08-21T12:41:24;29.60;91.90
25951;DHT22;13748;52.240;6.002;2022-08-21T12:44:08;29.70;90.60
25951;DHT22;13748;52.240;6.002;2022-08-21T12:46:42;29.60;90.90
25951;DHT22;13748;52.240;6.002;2022-08-21T12:49:18;29.50;91.20
25951;DHT22;13748;52.240;6.002;2022-08-21T12:52:16;29.50;91.50
25951;DHT22;13748;52.240;6.002;2022-08-21T12:54:46;29.60;91.10
25951;DHT22;13748;52.240;6.002;2022-08-21T12:57:27;29.50;91.20
25951;DHT22;13748;52.240;6.002;2022-08-21T13:00:00;29.50;91.00
25951;DHT22;13748;52.240;6.002;2022-08-21T13:02:39;29.70;91.00
25951;DHT22;13748;52.240;6.002;2022-08-21T13:05:14;29.60;90.80
25951;DHT22;13748;52.240;6.002;2022-08-21T13:07:47;29.50;90.70
25951;DHT22;13748;52.240;6.002;2022-08-21T13:10:31;29.50;90.70
25951;DHT22;13748;52.240;6.002;2022-08-21T13:13:14;29.50;90.30
25951;DHT22;13748;52.240;6.002;2022-08-21T13:16:05;29.60;90.90
25951;DHT22;13748;52.240;6.002;2022-08-21T13:21:30;29.80;89.80
25951;DHT22;13748;52.240;6.002;2022-08-21T13:24:18;29.60;90.90
25951;DHT22;13748;52.240;6.002;2022-08-21T13:27:25;29.60;90.20
25951;DHT22;13748;52.240;6.002;2022-08-21T13:30:11;29.50;90.70
25951;DHT22;13748;52.240;6.002;2022-08-21T13:32:44;29.70;90.60
25951;DHT22;13748;52.240;6.002;2022-08-21T13:35:19;29.90;90.10
25951;DHT22;13748;52.240;6.002;2022-08-21T13:37:54;29.90;89.90
25951;DHT22;13748;52.240;6.002;2022-08-21T13:40:32;30.10;90.00
25951;DHT22;13748;52.240;6.002;2022-08-21T13:43:12;30.10;89.20
25951;DHT22;13748;52.240;6.002;2022-08-21T13:45:51;30.00;89.20
25951;DHT22;13748;52.240;6.002;2022-08-21T13:48:21;29.90;90.00
25951;DHT22;13748;52.240;6.002;2022-08-21T13:50:53;29.80;89.90
25951;DHT22;13748;52.240;6.002;2022-08-21T13:53:30;29.80;90.00
25951;DHT22;13748;52.240;6.002;2022-08-21T13:56:01;29.60;89.40
25951;DHT22;13748;52.240;6.002;2022-08-21T13:58:46;29.60;89.40
25951;DHT22;13748;52.240;6.002;2022-08-21T14:01:31;29.60;88.90
25951;DHT22;13748;52.240;6.002;2022-08-21T14:04:20;29.60;90.10
25951;DHT22;13748;52.240;6.002;2022-08-21T14:06:54;29.40;90.50
25951;DHT22;13748;52.240;6.002;2022-08-21T14:09:39;29.10;90.00
25951;DHT22;13748;52.240;6.002;2022-08-21T14:12:19;29.20;90.60
25951;DHT22;13748;52.240;6.002;2022-08-21T14:14:56;29.30;90.40
25951;DHT22;13748;52.240;6.002;2022-08-21T14:17:37;29.30;90.20
25951;DHT22;13748;52.240;6.002;2022-08-21T14:20:27;29.40;90.40
25951;DHT22;13748;52.240;6.002;2022-08-21T14:22:57;29.30;90.30
25951;DHT22;13748;52.240;6.002;2022-08-21T14:28:32;29.00;90.50
25951;DHT22;13748;52.240;6.002;2022-08-21T14:31:19;28.90;90.30
25951;DHT22;13748;52.240;6.002;2022-08-21T14:33:48;28.60;90.30
25951;DHT22;13748;52.240;6.002;2022-08-21T14:36:15;28.40;90.80
25951;DHT22;13748;52.240;6.002;2022-08-21T14:38:42;28.20;91.10
25951;DHT22;13748;52.240;6.002;2022-08-21T14:41:20;28.10;91.10
25951;DHT22;13748;52.240;6.002;2022-08-21T14:43:54;27.90;91.40
25951;DHT22;13748;52.240;6.002;2022-08-21T14:46:35;27.80;91.80
25951;DHT22;13748;52.240;6.002;2022-08-21T14:49:23;27.70;92.30
25951;DHT22;13748;52.240;6.002;2022-08-21T14:51:51;27.50;92.70
25951;DHT22;13748;52.240;6.002;2022-08-21T14:54:31;27.40;92.90
25951;DHT22;13748;52.240;6.002;2022-08-21T14:57:02;27.50;93.10
25951;DHT22;13748;52.240;6.002;2022-08-21T14:59:33;27.60;93.30
25951;DHT22;13748;52.240;6.002;2022-08-21T15:02:01;27.50;93.40
25951;DHT22;13748;52.240;6.002;2022-08-21T15:04:31;27.40;93.90
25951;DHT22;13748;52.240;6.002;2022-08-21T15:06:58;27.50;93.80
25951;DHT22;13748;52.240;6.002;2022-08-21T15:09:25;27.40;93.90
25951;DHT22;13748;52.240;6.002;2022-08-21T15:11:56;27.50;94.70
25951;DHT22;13748;52.240;6.002;2022-08-21T15:14:26;27.30;95.40
25951;DHT22;13748;52.240;6.002;2022-08-21T15:16:56;27.00;95.90
25951;DHT22;13748;52.240;6.002;2022-08-21T15:19:26;26.90;96.20
25951;DHT22;13748;52.240;6.002;2022-08-21T15:21:59;26.70;96.70
25951;DHT22;13748;52.240;6.002;2022-08-21T15:24:34;26.60;97.30
25951;DHT22;13748;52.240;6.002;2022-08-21T15:27:23;26.50;97.60
25951;DHT22;13748;52.240;6.002;2022-08-21T15:29:52;26.50;98.40
25951;DHT22;13748;52.240;6.002;2022-08-21T15:32:30;26.50;98.40
25951;DHT22;13748;52.240;6.002;2022-08-21T15:35:00;26.50;98.60
25951;DHT22;13748;52.240;6.002;2022-08-21T15:37:34;26.40;98.80
25951;DHT22;13748;52.240;6.002;2022-08-21T15:40:15;26.40;98.90
25951;DHT22;13748;52.240;6.002;2022-08-21T15:42:47;26.50;98.90
25951;DHT22;13748;52.240;6.002;2022-08-21T15:52:31;26.30;99.60
25951;DHT22;13748;52.240;6.002;2022-08-21T15:55:47;26.20;99.60
25951;DHT22;13748;52.240;6.002;2022-08-21T16:01:49;26.30;99.90
25951;DHT22;13748;52.240;6.002;2022-08-21T16:04:26;26.20;99.90
25951;DHT22;13748;52.240;6.002;2022-08-21T16:07:10;26.20;99.90
25951;DHT22;13748;52.240;6.002;2022-08-21T16:09:44;26.10;99.90
25951;DHT22;13748;52.240;6.002;2022-08-21T16:12:46;25.90;99.90
25951;DHT22;13748;52.240;6.002;2022-08-21T16:15:53;25.90;99.90
25951;DHT22;13748;52.240;6.002;2022-08-21T16:18:22;25.80;99.90
25951;DHT22;13748;52.240;6.002;2022-08-21T16:20:51;25.60;99.90
25951;DHT22;13748;52.240;6.002;2022-08-21T16:23:19;25.60;99.90
25951;DHT22;13748;52.240;6.002;2022-08-21T16:25:51;25.50;99.90
25951;DHT22;13748;52.240;6.002;2022-08-21T16:28:19;25.50;99.90
25951;DHT22;13748;52.240;6.002;2022-08-21T16:30:48;25.40;99.90
25951;DHT22;13748;52.240;6.002;2022-08-21T16:33:46;25.30;99.90
25951;DHT22;13748;52.240;6.002;2022-08-21T16:36:16;25.20;99.90
25951;DHT22;13748;52.240;6.002;2022-08-21T16:38:43;25.10;99.90
25951;DHT22;13748;52.240;6.002;2022-08-21T16:41:25;25.00;99.90
25951;DHT22;13748;52.240;6.002;2022-08-21T16:43:54;25.00;99.90
25951;DHT22;13748;52.240;6.002;2022-08-21T16:46:22;25.00;99.90
25951;DHT22;13748;52.240;6.002;2022-08-21T16:48:51;24.90;99.90
25951;DHT22;13748;52.240;6.002;2022-08-21T16:51:18;24.90;99.90
25951;DHT22;13748;52.240;6.002;2022-08-21T16:53:45;24.80;99.90
25951;DHT22;13748;52.240;6.002;2022-08-21T16:56:14;24.80;99.90
25951;DHT22;13748;52.240;6.002;2022-08-21T16:58:46;24.80;99.90
25951;DHT22;13748;52.240;6.002;2022-08-21T17:01:27;24.80;99.90
25951;DHT22;13748;52.240;6.002;2022-08-21T17:04:21;24.70;99.90
25951;DHT22;13748;52.240;6.002;2022-08-21T17:07:10;24.70;99.90
25951;DHT22;13748;52.240;6.002;2022-08-21T17:09:45;24.50;99.90
25951;DHT22;13748;52.240;6.002;2022-08-21T17:12:48;24.50;99.90
25951;DHT22;13748;52.240;6.002;2022-08-21T17:15:28;24.50;99.90
25951;DHT22;13748;52.240;6.002;2022-08-21T17:18:00;24.40;99.90
25951;DHT22;13748;52.240;6.002;2022-08-21T17:20:59;24.30;99.90
25951;DHT22;13748;52.240;6.002;2022-08-21T17:23:36;24.30;99.90
25951;DHT22;13748;52.240;6.002;2022-08-21T17:26:06;24.30;99.90
25951;DHT22;13748;52.240;6.002;2022-08-21T17:28:42;24.20;99.90
25951;DHT22;13748;52.240;6.002;2022-08-21T17:31:42;24.20;99.90
25951;DHT22;13748;52.240;6.002;2022-08-21T17:34:24;24.10;99.90
25951;DHT22;13748;52.240;6.002;2022-08-21T17:37:16;24.10;99.90
25951;DHT22;13748;52.240;6.002;2022-08-21T17:40:02;24.00;99.90
25951;DHT22;13748;52.240;6.002;2022-08-21T17:42:39;24.00;99.90
25951;DHT22;13748;52.240;6.002;2022-08-21T17:45:16;23.90;99.90
25951;DHT22;13748;52.240;6.002;2022-08-21T17:47:59;23.90;99.90
25951;DHT22;13748;52.240;6.002;2022-08-21T17:50:50;23.90;99.90
25951;DHT22;13748;52.240;6.002;2022-08-21T17:53:29;23.80;99.90
25951;DHT22;13748;52.240;6.002;2022-08-21T17:56:16;23.80;99.90
25951;DHT22;13748;52.240;6.002;2022-08-21T17:58:49;23.80;99.90
25951;DHT22;13748;52.240;6.002;2022-08-21T18:01:28;23.70;99.90
25951;DHT22;13748;52.240;6.002;2022-08-21T18:04:25;23.70;99.90
25951;DHT22;13748;52.240;6.002;2022-08-21T18:07:12;23.60;99.90
25951;DHT22;13748;52.240;6.002;2022-08-21T18:17:11;23.50;99.90
25951;DHT22;13748;52.240;6.002;2022-08-21T18:19:49;23.40;99.90
25951;DHT22;13748;52.240;6.002;2022-08-21T18:22:52;23.40;99.90